Impacts TAF Board INFO
FOR SITUATIONAL AWARENESS. NOT TO BE USED FOR FLIGHT PLANNING PURPOSES.
IDs:

KSTL - St Louis/Lambert Int, MO, US

Issued at 0301 UTC 20 Aug 2018
Updated at 0333 UTC 20 Aug 2018
Potential Impact None Slight Moderate High
Time0251Z 20/04Z 20/05Z 20/06Z 20/07Z 20/08Z 20/09Z 20/10Z 20/11Z 20/12Z 20/13Z 20/14Z 20/15Z 20/16Z>>
Type OBS PRVL PRVL PRVL PRVL PRVL PRVL PRVL PRVL PRVL PRVL PRVL PRVL PRVL
VIS 10 >6 5 5 5 5 >6 >6 >6 >6 >6 >6 >6 >6
CIG 180 120 50 50 50 50 25 25 25 25 25 120 120 120
Cover OVC OVC OVC OVC OVC OVC OVC OVC OVC OVC OVC BKN BKN BKN
FltCat VFR VFR MVFR MVFR MVFR MVFR MVFR MVFR MVFR MVFR MVFR VFR VFR VFR
WX -- -- -RA VCTS -RA VCTS -RA VCTS -RA VCTS -- -- -- -- -- -- -- --
WDir 120 130 150 150 150 150 170 170 170 170 170 220 220 220
WSpd 9 9 10 10 10 10 10 10 10 10 10 12 12 12
WGst -- -- -- -- -- -- -- -- -- -- -- -- -- --

Raw TAF
KSTL 200301Z 2003/2106 13009KT P6SM OVC120
  FM200500 15010KT 5SM -RA VCTS OVC050CB
  FM200900 17010KT P6SM OVC025
  FM201400 22012KT P6SM BKN120
  FM201900 22011KT 5SM -RA BR VCTS OVC050CB
  FM202300 23008KT P6SM BKN050


Raw METAR
KSTL 200251Z 12009KT 10SM BKN180 OVC250 27/22 A2987 RMK AO2 SLP102 T02670217 53001
KSTL 200151Z 12010KT 10SM SCT180 OVC250 27/21 A2986 RMK AO2 SLP100 T02720211
KSTL 200051Z 14009KT 10SM OVC250 27/21 A2987 RMK AO2 SLP103 T02720211

METAR Board
Radar Display
Forecast Discussion

FOR SITUATIONAL AWARENESS. NOT TO BE USED FOR FLIGHT PLANNING PURPOSES.